Pagina principală
METAR-TAF:

METAR-TAF

Aeroporturi :

Moundou, Ciad

Latitudine: 08-37N, longitudine: 016-04E, elevație: 428 m

Observații meteo curente

Raportul a fost făcut în urmă cu 1 oră și 28 de minute, la 15:00 UTC
Vânt calm
Temperatură 34°C
Umiditate 50%
Presiune 1010 hPa
Vizibilitate de 10 km sau mai mult
Nori puțini la o înălțime de 4000 picior
Nori puțini la o înălțime de 5000 picior, Cumulonimbus.

METAR: FTTD 131500Z 00000KT 9999 FEW040 FEW050CB 34/22 Q1010

Ora: 17:28 (16:28 UTC)


TAF: lipsă

Observații și prognoze meteo pentru peste 4.000 de aeroporturi (rapoarte METAR și TAF).

Stațiile disponibile sunt reprezentate pe hartă prin puncte galbene și roșii.

Țineți indicatorul mouse-ului pe punctul dorit pentru a vedea denumirea stației.

Apoi, faceți clic pentru a vedea observațiile și prognozele meteorologice.

Pentru a schimba harta: Pentru mărire, faceți clic pe butoanele verzi cu cruce neagră; pentru micșorare, pe butonul verde cu o liniuță; pentru hărți învecinate, pe săgețile verzi.


METAR-TAF: